Terminal Aerodrome Forecast
Issued by NWS

Current Version | Previous Version | Graphics & Text | Print | Product List | Glossary On
Versions: 1 2 3 4 5 6 7 8 9 10 11 12 13 14 15 16 17
000
FTUS41 KILN 250537
TAFLCK
TAF
KLCK 250537Z 2506/2606 25004KT P6SM SCT060
     FM251000 26006KT P6SM OVC060
     FM251600 28010KT P6SM BKN060
     FM260400 VRB02KT P6SM SCT060=

USA.gov is the U.S. government's official web portal to all federal, state and local government web resources and services.